sensor_id;sensor_type;location;lat;lon;timestamp;temperature;humidity
17762;DHT22;9005;48.838;10.112;2023-12-14T00:02:08;3.50;94.70
17762;DHT22;9005;48.838;10.112;2023-12-14T00:04:36;3.40;94.60
17762;DHT22;9005;48.838;10.112;2023-12-14T00:07:03;3.40;94.70
17762;DHT22;9005;48.838;10.112;2023-12-14T00:09:30;3.40;94.70
17762;DHT22;9005;48.838;10.112;2023-12-14T00:11:56;3.40;94.50
17762;DHT22;9005;48.838;10.112;2023-12-14T00:14:23;3.40;94.50
17762;DHT22;9005;48.838;10.112;2023-12-14T00:16:50;3.40;94.70
17762;DHT22;9005;48.838;10.112;2023-12-14T00:19:16;3.40;94.70
17762;DHT22;9005;48.838;10.112;2023-12-14T00:21:45;3.40;94.70
17762;DHT22;9005;48.838;10.112;2023-12-14T00:24:11;3.50;94.80
17762;DHT22;9005;48.838;10.112;2023-12-14T00:26:38;3.50;94.90
17762;DHT22;9005;48.838;10.112;2023-12-14T00:29:05;3.50;95.10
17762;DHT22;9005;48.838;10.112;2023-12-14T00:31:31;3.50;95.30
17762;DHT22;9005;48.838;10.112;2023-12-14T00:33:58;3.50;95.40
17762;DHT22;9005;48.838;10.112;2023-12-14T00:36:25;3.50;95.50
17762;DHT22;9005;48.838;10.112;2023-12-14T00:38:53;3.50;95.20
17762;DHT22;9005;48.838;10.112;2023-12-14T00:41:20;3.50;95.00
17762;DHT22;9005;48.838;10.112;2023-12-14T00:43:47;3.50;95.20
17762;DHT22;9005;48.838;10.112;2023-12-14T00:46:13;3.50;95.20
17762;DHT22;9005;48.838;10.112;2023-12-14T00:48:40;3.50;95.20
17762;DHT22;9005;48.838;10.112;2023-12-14T00:51:07;3.50;95.40
17762;DHT22;9005;48.838;10.112;2023-12-14T00:53:33;3.50;95.40
17762;DHT22;9005;48.838;10.112;2023-12-14T00:56:02;3.50;95.20
17762;DHT22;9005;48.838;10.112;2023-12-14T00:58:28;3.50;95.20
17762;DHT22;9005;48.838;10.112;2023-12-14T01:00:55;3.60;95.40
17762;DHT22;9005;48.838;10.112;2023-12-14T01:03:22;3.60;95.60
17762;DHT22;9005;48.838;10.112;2023-12-14T01:05:48;3.60;95.70
17762;DHT22;9005;48.838;10.112;2023-12-14T01:08:15;3.60;95.60
17762;DHT22;9005;48.838;10.112;2023-12-14T01:10:42;3.60;95.60
17762;DHT22;9005;48.838;10.112;2023-12-14T01:13:10;3.60;95.50
17762;DHT22;9005;48.838;10.112;2023-12-14T01:15:37;3.60;95.30
17762;DHT22;9005;48.838;10.112;2023-12-14T01:18:04;3.60;95.20
17762;DHT22;9005;48.838;10.112;2023-12-14T01:20:31;3.60;95.30
17762;DHT22;9005;48.838;10.112;2023-12-14T01:22:57;3.60;95.40
17762;DHT22;9005;48.838;10.112;2023-12-14T01:25:24;3.60;95.50
17762;DHT22;9005;48.838;10.112;2023-12-14T01:27:51;3.60;95.70
17762;DHT22;9005;48.838;10.112;2023-12-14T01:30:19;3.60;95.80
17762;DHT22;9005;48.838;10.112;2023-12-14T01:32:46;3.70;95.90
17762;DHT22;9005;48.838;10.112;2023-12-14T01:35:12;3.70;96.00
17762;DHT22;9005;48.838;10.112;2023-12-14T01:37:39;3.70;96.00
17762;DHT22;9005;48.838;10.112;2023-12-14T01:40:07;3.70;96.10
17762;DHT22;9005;48.838;10.112;2023-12-14T01:42:34;3.70;96.10
17762;DHT22;9005;48.838;10.112;2023-12-14T01:45:00;3.70;96.20
17762;DHT22;9005;48.838;10.112;2023-12-14T01:47:28;3.70;96.10
17762;DHT22;9005;48.838;10.112;2023-12-14T01:49:55;3.70;96.10
17762;DHT22;9005;48.838;10.112;2023-12-14T01:52:22;3.70;96.10
17762;DHT22;9005;48.838;10.112;2023-12-14T01:54:48;3.70;96.00
17762;DHT22;9005;48.838;10.112;2023-12-14T01:57:15;3.80;96.00
17762;DHT22;9005;48.838;10.112;2023-12-14T01:59:42;3.70;95.90
17762;DHT22;9005;48.838;10.112;2023-12-14T02:02:08;3.80;96.00
17762;DHT22;9005;48.838;10.112;2023-12-14T02:04:36;3.80;96.00
17762;DHT22;9005;48.838;10.112;2023-12-14T02:07:03;3.80;96.00
17762;DHT22;9005;48.838;10.112;2023-12-14T02:09:30;3.80;96.10
17762;DHT22;9005;48.838;10.112;2023-12-14T02:11:57;3.80;96.20
17762;DHT22;9005;48.838;10.112;2023-12-14T02:14:23;3.80;96.10
17762;DHT22;9005;48.838;10.112;2023-12-14T02:16:50;3.80;96.00
17762;DHT22;9005;48.838;10.112;2023-12-14T02:19:17;3.90;96.00
17762;DHT22;9005;48.838;10.112;2023-12-14T02:21:45;3.90;95.90
17762;DHT22;9005;48.838;10.112;2023-12-14T02:24:13;3.90;95.90
17762;DHT22;9005;48.838;10.112;2023-12-14T02:26:40;3.90;96.00
17762;DHT22;9005;48.838;10.112;2023-12-14T02:29:06;3.90;96.00
17762;DHT22;9005;48.838;10.112;2023-12-14T02:31:33;3.90;96.00
17762;DHT22;9005;48.838;10.112;2023-12-14T02:34:00;3.90;95.80
17762;DHT22;9005;48.838;10.112;2023-12-14T02:36:26;3.90;95.70
17762;DHT22;9005;48.838;10.112;2023-12-14T02:38:53;4.00;95.80
17762;DHT22;9005;48.838;10.112;2023-12-14T02:41:21;4.00;96.00
17762;DHT22;9005;48.838;10.112;2023-12-14T02:43:48;4.00;95.90
17762;DHT22;9005;48.838;10.112;2023-12-14T02:46:15;4.00;96.00
17762;DHT22;9005;48.838;10.112;2023-12-14T02:48:41;4.00;96.10
17762;DHT22;9005;48.838;10.112;2023-12-14T02:51:12;4.00;96.10
17762;DHT22;9005;48.838;10.112;2023-12-14T02:53:39;4.00;96.10
17762;DHT22;9005;48.838;10.112;2023-12-14T02:56:07;4.00;96.10
17762;DHT22;9005;48.838;10.112;2023-12-14T02:58:35;4.00;96.10
17762;DHT22;9005;48.838;10.112;2023-12-14T03:01:02;4.00;96.10
17762;DHT22;9005;48.838;10.112;2023-12-14T03:03:29;4.00;96.10
17762;DHT22;9005;48.838;10.112;2023-12-14T03:05:56;4.00;96.10
17762;DHT22;9005;48.838;10.112;2023-12-14T03:08:22;4.00;95.90
17762;DHT22;9005;48.838;10.112;2023-12-14T03:10:49;4.00;95.70
17762;DHT22;9005;48.838;10.112;2023-12-14T03:13:16;4.00;95.80
17762;DHT22;9005;48.838;10.112;2023-12-14T03:15:44;4.00;95.60
17762;DHT22;9005;48.838;10.112;2023-12-14T03:18:12;4.00;95.30
17762;DHT22;9005;48.838;10.112;2023-12-14T03:20:38;4.00;95.10
17762;DHT22;9005;48.838;10.112;2023-12-14T03:23:05;4.00;95.30
17762;DHT22;9005;48.838;10.112;2023-12-14T03:25:32;4.00;95.40
17762;DHT22;9005;48.838;10.112;2023-12-14T03:27:58;4.00;95.30
17762;DHT22;9005;48.838;10.112;2023-12-14T03:30:25;4.00;95.20
17762;DHT22;9005;48.838;10.112;2023-12-14T03:32:54;4.00;95.20
17762;DHT22;9005;48.838;10.112;2023-12-14T03:35:21;4.00;95.30
17762;DHT22;9005;48.838;10.112;2023-12-14T03:37:47;4.00;95.50
17762;DHT22;9005;48.838;10.112;2023-12-14T03:40:14;4.00;95.40
17762;DHT22;9005;48.838;10.112;2023-12-14T03:42:41;4.00;95.40
17762;DHT22;9005;48.838;10.112;2023-12-14T03:45:08;4.00;95.40
17762;DHT22;9005;48.838;10.112;2023-12-14T03:47:35;4.00;95.50
17762;DHT22;9005;48.838;10.112;2023-12-14T03:50:05;4.00;95.40
17762;DHT22;9005;48.838;10.112;2023-12-14T03:52:32;4.00;95.30
17762;DHT22;9005;48.838;10.112;2023-12-14T03:54:59;4.00;95.40
17762;DHT22;9005;48.838;10.112;2023-12-14T03:57:25;4.00;95.50
17762;DHT22;9005;48.838;10.112;2023-12-14T03:59:52;4.00;95.60
17762;DHT22;9005;48.838;10.112;2023-12-14T04:02:19;4.00;95.50
17762;DHT22;9005;48.838;10.112;2023-12-14T04:04:46;4.00;95.50
17762;DHT22;9005;48.838;10.112;2023-12-14T04:07:14;4.00;95.60
17762;DHT22;9005;48.838;10.112;2023-12-14T04:09:40;4.00;95.60
17762;DHT22;9005;48.838;10.112;2023-12-14T04:12:07;3.90;95.50
17762;DHT22;9005;48.838;10.112;2023-12-14T04:14:34;3.90;95.60
17762;DHT22;9005;48.838;10.112;2023-12-14T04:17:01;3.90;95.70
17762;DHT22;9005;48.838;10.112;2023-12-14T04:19:27;3.90;95.70
17762;DHT22;9005;48.838;10.112;2023-12-14T04:21:54;3.90;95.70
17762;DHT22;9005;48.838;10.112;2023-12-14T04:24:22;4.00;95.90
17762;DHT22;9005;48.838;10.112;2023-12-14T04:26:49;4.00;95.90
17762;DHT22;9005;48.838;10.112;2023-12-14T04:29:15;4.00;95.90
17762;DHT22;9005;48.838;10.112;2023-12-14T04:31:42;3.90;95.90
17762;DHT22;9005;48.838;10.112;2023-12-14T04:34:09;3.90;95.90
17762;DHT22;9005;48.838;10.112;2023-12-14T04:36:40;3.90;95.90
17762;DHT22;9005;48.838;10.112;2023-12-14T04:39:07;3.90;95.90
17762;DHT22;9005;48.838;10.112;2023-12-14T04:41:35;3.90;96.00
17762;DHT22;9005;48.838;10.112;2023-12-14T04:44:02;3.90;95.90
17762;DHT22;9005;48.838;10.112;2023-12-14T04:46:29;3.90;96.00
17762;DHT22;9005;48.838;10.112;2023-12-14T04:48:56;3.90;96.00
17762;DHT22;9005;48.838;10.112;2023-12-14T04:51:22;3.90;96.00
17762;DHT22;9005;48.838;10.112;2023-12-14T04:53:49;3.90;95.90
17762;DHT22;9005;48.838;10.112;2023-12-14T04:56:16;3.90;95.90
17762;DHT22;9005;48.838;10.112;2023-12-14T04:58:44;3.90;96.00
17762;DHT22;9005;48.838;10.112;2023-12-14T05:01:11;3.90;95.90
17762;DHT22;9005;48.838;10.112;2023-12-14T05:03:38;3.90;95.90
17762;DHT22;9005;48.838;10.112;2023-12-14T05:06:05;3.90;96.00
17762;DHT22;9005;48.838;10.112;2023-12-14T05:08:32;3.90;95.90
17762;DHT22;9005;48.838;10.112;2023-12-14T05:10:59;4.00;95.90
17762;DHT22;9005;48.838;10.112;2023-12-14T05:13:26;3.90;95.70
17762;DHT22;9005;48.838;10.112;2023-12-14T05:15:54;4.00;95.70
17762;DHT22;9005;48.838;10.112;2023-12-14T05:18:20;4.00;96.00
17762;DHT22;9005;48.838;10.112;2023-12-14T05:20:47;4.00;95.90
17762;DHT22;9005;48.838;10.112;2023-12-14T05:23:14;4.00;95.90
17762;DHT22;9005;48.838;10.112;2023-12-14T05:25:40;4.00;95.80
17762;DHT22;9005;48.838;10.112;2023-12-14T05:28:07;3.90;95.70
17762;DHT22;9005;48.838;10.112;2023-12-14T05:30:34;3.90;95.80
17762;DHT22;9005;48.838;10.112;2023-12-14T05:33:02;3.90;96.00
17762;DHT22;9005;48.838;10.112;2023-12-14T05:35:29;3.90;95.90
17762;DHT22;9005;48.838;10.112;2023-12-14T05:37:56;3.90;96.00
17762;DHT22;9005;48.838;10.112;2023-12-14T05:40:23;3.90;96.00
17762;DHT22;9005;48.838;10.112;2023-12-14T05:42:49;3.90;96.10
17762;DHT22;9005;48.838;10.112;2023-12-14T05:45:16;3.90;96.10
17762;DHT22;9005;48.838;10.112;2023-12-14T05:47:44;3.90;96.10
17762;DHT22;9005;48.838;10.112;2023-12-14T05:50:12;3.90;96.20
17762;DHT22;9005;48.838;10.112;2023-12-14T05:52:39;4.00;96.10
17762;DHT22;9005;48.838;10.112;2023-12-14T05:55:08;4.00;96.10
17762;DHT22;9005;48.838;10.112;2023-12-14T05:57:36;4.00;96.10
17762;DHT22;9005;48.838;10.112;2023-12-14T06:00:03;4.00;96.20
17762;DHT22;9005;48.838;10.112;2023-12-14T06:02:31;4.00;96.30
17762;DHT22;9005;48.838;10.112;2023-12-14T06:04:58;4.00;96.10
17762;DHT22;9005;48.838;10.112;2023-12-14T06:07:26;4.00;96.20
17762;DHT22;9005;48.838;10.112;2023-12-14T06:09:53;4.00;96.30
17762;DHT22;9005;48.838;10.112;2023-12-14T06:12:19;4.00;96.40
17762;DHT22;9005;48.838;10.112;2023-12-14T06:14:46;4.10;96.40
17762;DHT22;9005;48.838;10.112;2023-12-14T06:17:13;4.00;96.40
17762;DHT22;9005;48.838;10.112;2023-12-14T06:19:39;4.10;96.50
17762;DHT22;9005;48.838;10.112;2023-12-14T06:22:06;4.10;96.50
17762;DHT22;9005;48.838;10.112;2023-12-14T06:24:34;4.10;96.50
17762;DHT22;9005;48.838;10.112;2023-12-14T06:27:01;4.10;96.60
17762;DHT22;9005;48.838;10.112;2023-12-14T06:29:28;4.20;96.60
17762;DHT22;9005;48.838;10.112;2023-12-14T06:31:54;4.20;96.60
17762;DHT22;9005;48.838;10.112;2023-12-14T06:34:21;4.20;96.60
17762;DHT22;9005;48.838;10.112;2023-12-14T06:36:48;4.20;96.60
17762;DHT22;9005;48.838;10.112;2023-12-14T06:39:14;4.20;96.70
17762;DHT22;9005;48.838;10.112;2023-12-14T06:41:43;4.20;96.80
17762;DHT22;9005;48.838;10.112;2023-12-14T06:44:09;4.20;96.70
17762;DHT22;9005;48.838;10.112;2023-12-14T06:46:36;4.20;96.70
17762;DHT22;9005;48.838;10.112;2023-12-14T06:49:03;4.20;96.80
17762;DHT22;9005;48.838;10.112;2023-12-14T06:51:29;4.20;96.80
17762;DHT22;9005;48.838;10.112;2023-12-14T06:53:56;4.10;96.70
17762;DHT22;9005;48.838;10.112;2023-12-14T06:56:23;4.20;96.80
17762;DHT22;9005;48.838;10.112;2023-12-14T06:58:51;4.20;96.80
17762;DHT22;9005;48.838;10.112;2023-12-14T07:01:18;4.20;96.80
17762;DHT22;9005;48.838;10.112;2023-12-14T07:03:45;4.20;96.80
17762;DHT22;9005;48.838;10.112;2023-12-14T07:06:12;4.20;96.80
17762;DHT22;9005;48.838;10.112;2023-12-14T07:08:39;4.20;96.80
17762;DHT22;9005;48.838;10.112;2023-12-14T07:11:07;4.20;96.80
17762;DHT22;9005;48.838;10.112;2023-12-14T07:13:33;4.20;96.80
17762;DHT22;9005;48.838;10.112;2023-12-14T07:16:03;4.20;96.80
17762;DHT22;9005;48.838;10.112;2023-12-14T07:18:30;4.20;96.80
17762;DHT22;9005;48.838;10.112;2023-12-14T07:20:57;4.20;96.80
17762;DHT22;9005;48.838;10.112;2023-12-14T07:23:23;4.20;96.80
17762;DHT22;9005;48.838;10.112;2023-12-14T07:25:50;4.20;96.80
17762;DHT22;9005;48.838;10.112;2023-12-14T07:28:17;4.20;96.80
17762;DHT22;9005;48.838;10.112;2023-12-14T07:30:45;4.20;96.70
17762;DHT22;9005;48.838;10.112;2023-12-14T07:33:13;4.20;96.80
17762;DHT22;9005;48.838;10.112;2023-12-14T07:35:40;4.20;96.80
17762;DHT22;9005;48.838;10.112;2023-12-14T07:38:08;4.20;96.80
17762;DHT22;9005;48.838;10.112;2023-12-14T07:40:35;4.20;96.80
17762;DHT22;9005;48.838;10.112;2023-12-14T07:43:02;4.20;96.80
17762;DHT22;9005;48.838;10.112;2023-12-14T07:45:28;4.20;96.70
17762;DHT22;9005;48.838;10.112;2023-12-14T07:47:55;4.20;96.60
17762;DHT22;9005;48.838;10.112;2023-12-14T07:50:23;4.20;96.70
17762;DHT22;9005;48.838;10.112;2023-12-14T07:52:50;4.20;96.70
17762;DHT22;9005;48.838;10.112;2023-12-14T07:55:16;4.30;96.70
17762;DHT22;9005;48.838;10.112;2023-12-14T07:57:44;4.40;96.80
17762;DHT22;9005;48.838;10.112;2023-12-14T08:00:11;4.40;96.70
17762;DHT22;9005;48.838;10.112;2023-12-14T08:02:38;4.40;96.80
17762;DHT22;9005;48.838;10.112;2023-12-14T08:05:06;4.50;96.80
17762;DHT22;9005;48.838;10.112;2023-12-14T08:07:34;4.50;96.90
17762;DHT22;9005;48.838;10.112;2023-12-14T08:10:00;4.50;96.90
17762;DHT22;9005;48.838;10.112;2023-12-14T08:12:27;4.60;96.90
17762;DHT22;9005;48.838;10.112;2023-12-14T08:14:54;4.60;97.00
17762;DHT22;9005;48.838;10.112;2023-12-14T08:17:20;4.60;96.90
17762;DHT22;9005;48.838;10.112;2023-12-14T08:19:47;4.60;96.90
17762;DHT22;9005;48.838;10.112;2023-12-14T08:22:14;4.60;96.80
17762;DHT22;9005;48.838;10.112;2023-12-14T08:24:42;4.60;96.40
17762;DHT22;9005;48.838;10.112;2023-12-14T08:27:09;4.60;96.00
17762;DHT22;9005;48.838;10.112;2023-12-14T08:29:35;4.60;96.00
17762;DHT22;9005;48.838;10.112;2023-12-14T08:32:03;4.60;95.90
17762;DHT22;9005;48.838;10.112;2023-12-14T08:34:30;4.60;96.00
17762;DHT22;9005;48.838;10.112;2023-12-14T08:36:56;4.60;95.80
17762;DHT22;9005;48.838;10.112;2023-12-14T08:39:23;4.60;95.50
17762;DHT22;9005;48.838;10.112;2023-12-14T08:41:52;4.70;95.30
17762;DHT22;9005;48.838;10.112;2023-12-14T08:44:18;4.70;95.30
17762;DHT22;9005;48.838;10.112;2023-12-14T08:46:46;4.80;95.50
17762;DHT22;9005;48.838;10.112;2023-12-14T08:49:13;4.80;95.70
17762;DHT22;9005;48.838;10.112;2023-12-14T08:51:41;4.90;95.80
17762;DHT22;9005;48.838;10.112;2023-12-14T08:54:08;5.00;95.60
17762;DHT22;9005;48.838;10.112;2023-12-14T08:56:35;5.10;94.70
17762;DHT22;9005;48.838;10.112;2023-12-14T08:59:03;5.10;93.90
17762;DHT22;9005;48.838;10.112;2023-12-14T09:01:30;5.10;93.50
17762;DHT22;9005;48.838;10.112;2023-12-14T09:03:56;5.10;93.70
17762;DHT22;9005;48.838;10.112;2023-12-14T09:06:23;5.20;93.30
17762;DHT22;9005;48.838;10.112;2023-12-14T09:08:50;5.20;92.80
17762;DHT22;9005;48.838;10.112;2023-12-14T09:11:17;5.20;92.50
17762;DHT22;9005;48.838;10.112;2023-12-14T09:13:44;5.20;92.40
17762;DHT22;9005;48.838;10.112;2023-12-14T09:16:12;5.20;92.70
17762;DHT22;9005;48.838;10.112;2023-12-14T09:18:39;5.10;92.70
17762;DHT22;9005;48.838;10.112;2023-12-14T09:21:06;5.20;92.90
17762;DHT22;9005;48.838;10.112;2023-12-14T09:23:32;5.20;93.20
17762;DHT22;9005;48.838;10.112;2023-12-14T09:25:59;5.30;92.90
17762;DHT22;9005;48.838;10.112;2023-12-14T09:28:26;5.20;91.60
17762;DHT22;9005;48.838;10.112;2023-12-14T09:30:52;5.20;91.70
17762;DHT22;9005;48.838;10.112;2023-12-14T09:33:20;5.30;92.20
17762;DHT22;9005;48.838;10.112;2023-12-14T09:35:47;5.30;92.60
17762;DHT22;9005;48.838;10.112;2023-12-14T09:38:14;5.40;93.20
17762;DHT22;9005;48.838;10.112;2023-12-14T09:40:43;5.40;93.50
17762;DHT22;9005;48.838;10.112;2023-12-14T09:43:10;5.50;93.40
17762;DHT22;9005;48.838;10.112;2023-12-14T09:45:40;5.60;92.90
17762;DHT22;9005;48.838;10.112;2023-12-14T09:48:11;5.70;93.40
17762;DHT22;9005;48.838;10.112;2023-12-14T09:50:40;5.80;92.50
17762;DHT22;9005;48.838;10.112;2023-12-14T09:53:06;5.70;90.00
17762;DHT22;9005;48.838;10.112;2023-12-14T09:55:34;5.70;90.60
17762;DHT22;9005;48.838;10.112;2023-12-14T09:58:00;5.70;90.70
17762;DHT22;9005;48.838;10.112;2023-12-14T10:00:35;5.70;90.90
17762;DHT22;9005;48.838;10.112;2023-12-14T10:03:21;5.60;90.10
17762;DHT22;9005;48.838;10.112;2023-12-14T10:05:50;5.60;90.90
17762;DHT22;9005;48.838;10.112;2023-12-14T10:08:17;5.60;91.70
17762;DHT22;9005;48.838;10.112;2023-12-14T10:10:44;5.60;89.60
17762;DHT22;9005;48.838;10.112;2023-12-14T10:13:11;5.60;89.30
17762;DHT22;9005;48.838;10.112;2023-12-14T10:15:41;5.60;89.70
17762;DHT22;9005;48.838;10.112;2023-12-14T10:18:08;5.60;89.90
17762;DHT22;9005;48.838;10.112;2023-12-14T10:20:35;5.60;90.20
17762;DHT22;9005;48.838;10.112;2023-12-14T10:23:04;5.70;90.60
17762;DHT22;9005;48.838;10.112;2023-12-14T10:25:31;5.70;90.60
17762;DHT22;9005;48.838;10.112;2023-12-14T10:27:58;5.70;90.80
17762;DHT22;9005;48.838;10.112;2023-12-14T10:30:25;5.70;90.10
17762;DHT22;9005;48.838;10.112;2023-12-14T10:32:53;5.70;91.30
17762;DHT22;9005;48.838;10.112;2023-12-14T10:35:20;5.70;90.10
17762;DHT22;9005;48.838;10.112;2023-12-14T10:37:50;5.70;89.90
17762;DHT22;9005;48.838;10.112;2023-12-14T10:40:19;5.50;89.20
17762;DHT22;9005;48.838;10.112;2023-12-14T10:42:47;5.50;89.50
17762;DHT22;9005;48.838;10.112;2023-12-14T10:45:16;5.50;90.50
17762;DHT22;9005;48.838;10.112;2023-12-14T10:47:47;5.50;90.40
17762;DHT22;9005;48.838;10.112;2023-12-14T10:50:14;5.60;90.00
17762;DHT22;9005;48.838;10.112;2023-12-14T10:52:42;5.60;90.20
17762;DHT22;9005;48.838;10.112;2023-12-14T10:55:18;5.70;89.30
17762;DHT22;9005;48.838;10.112;2023-12-14T10:57:48;5.60;89.00
17762;DHT22;9005;48.838;10.112;2023-12-14T11:00:17;5.60;89.20
17762;DHT22;9005;48.838;10.112;2023-12-14T11:02:46;5.60;90.60
17762;DHT22;9005;48.838;10.112;2023-12-14T11:05:14;5.60;89.50
17762;DHT22;9005;48.838;10.112;2023-12-14T11:07:49;5.60;89.80
17762;DHT22;9005;48.838;10.112;2023-12-14T11:10:21;5.70;90.30
17762;DHT22;9005;48.838;10.112;2023-12-14T11:12:55;5.70;89.80
17762;DHT22;9005;48.838;10.112;2023-12-14T11:15:23;5.70;90.30
17762;DHT22;9005;48.838;10.112;2023-12-14T11:18:27;5.70;89.30
17762;DHT22;9005;48.838;10.112;2023-12-14T11:20:55;5.70;88.70
17762;DHT22;9005;48.838;10.112;2023-12-14T11:23:34;5.60;88.90
17762;DHT22;9005;48.838;10.112;2023-12-14T11:26:03;5.60;89.40
17762;DHT22;9005;48.838;10.112;2023-12-14T11:28:33;5.50;89.20
17762;DHT22;9005;48.838;10.112;2023-12-14T11:31:00;5.60;90.10
17762;DHT22;9005;48.838;10.112;2023-12-14T11:33:28;5.60;90.10
17762;DHT22;9005;48.838;10.112;2023-12-14T11:35:55;5.70;89.90
17762;DHT22;9005;48.838;10.112;2023-12-14T11:38:23;5.80;88.80
17762;DHT22;9005;48.838;10.112;2023-12-14T11:40:50;5.80;89.60
17762;DHT22;9005;48.838;10.112;2023-12-14T11:43:17;6.00;89.70
17762;DHT22;9005;48.838;10.112;2023-12-14T11:45:48;6.10;89.80
17762;DHT22;9005;48.838;10.112;2023-12-14T11:48:15;6.80;89.00
17762;DHT22;9005;48.838;10.112;2023-12-14T11:50:42;7.30;85.40
17762;DHT22;9005;48.838;10.112;2023-12-14T11:53:10;7.50;84.50
17762;DHT22;9005;48.838;10.112;2023-12-14T11:55:38;7.40;84.30
17762;DHT22;9005;48.838;10.112;2023-12-14T11:58:06;7.10;82.90
17762;DHT22;9005;48.838;10.112;2023-12-14T12:00:34;6.80;84.60
17762;DHT22;9005;48.838;10.112;2023-12-14T12:03:11;6.60;84.80
17762;DHT22;9005;48.838;10.112;2023-12-14T12:05:40;6.50;85.80
17762;DHT22;9005;48.838;10.112;2023-12-14T12:08:07;6.70;86.60
17762;DHT22;9005;48.838;10.112;2023-12-14T12:10:34;6.90;87.00
17762;DHT22;9005;48.838;10.112;2023-12-14T12:13:02;6.90;83.90
17762;DHT22;9005;48.838;10.112;2023-12-14T12:15:31;7.00;84.60
17762;DHT22;9005;48.838;10.112;2023-12-14T12:17:58;7.00;84.00
17762;DHT22;9005;48.838;10.112;2023-12-14T12:20:26;7.20;84.00
17762;DHT22;9005;48.838;10.112;2023-12-14T12:22:53;7.30;82.30
17762;DHT22;9005;48.838;10.112;2023-12-14T12:25:20;7.40;84.30
17762;DHT22;9005;48.838;10.112;2023-12-14T12:27:48;7.40;80.70
17762;DHT22;9005;48.838;10.112;2023-12-14T12:30:15;7.10;80.70
17762;DHT22;9005;48.838;10.112;2023-12-14T12:32:42;7.00;82.40
17762;DHT22;9005;48.838;10.112;2023-12-14T12:35:09;7.00;82.30
17762;DHT22;9005;48.838;10.112;2023-12-14T12:37:37;6.80;82.40
17762;DHT22;9005;48.838;10.112;2023-12-14T12:40:05;6.60;82.40
17762;DHT22;9005;48.838;10.112;2023-12-14T12:42:32;6.60;83.80
17762;DHT22;9005;48.838;10.112;2023-12-14T12:44:59;6.70;83.30
17762;DHT22;9005;48.838;10.112;2023-12-14T12:47:26;6.90;83.40
17762;DHT22;9005;48.838;10.112;2023-12-14T12:49:52;7.20;81.60
17762;DHT22;9005;48.838;10.112;2023-12-14T12:52:19;7.60;80.40
17762;DHT22;9005;48.838;10.112;2023-12-14T12:54:47;7.80;78.90
17762;DHT22;9005;48.838;10.112;2023-12-14T12:57:14;7.60;79.50
17762;DHT22;9005;48.838;10.112;2023-12-14T12:59:41;7.40;81.30
17762;DHT22;9005;48.838;10.112;2023-12-14T13:02:07;7.10;81.00
17762;DHT22;9005;48.838;10.112;2023-12-14T13:04:34;6.90;82.20
17762;DHT22;9005;48.838;10.112;2023-12-14T13:07:02;6.90;82.20
17762;DHT22;9005;48.838;10.112;2023-12-14T13:09:30;7.00;82.60
17762;DHT22;9005;48.838;10.112;2023-12-14T13:11:59;7.10;82.90
17762;DHT22;9005;48.838;10.112;2023-12-14T13:14:25;7.00;82.10
17762;DHT22;9005;48.838;10.112;2023-12-14T13:16:52;6.90;83.70
17762;DHT22;9005;48.838;10.112;2023-12-14T13:19:19;6.70;84.20
17762;DHT22;9005;48.838;10.112;2023-12-14T13:21:46;6.60;84.40
17762;DHT22;9005;48.838;10.112;2023-12-14T13:24:12;6.50;84.50
17762;DHT22;9005;48.838;10.112;2023-12-14T13:26:39;6.30;85.60
17762;DHT22;9005;48.838;10.112;2023-12-14T13:29:07;6.20;86.20
17762;DHT22;9005;48.838;10.112;2023-12-14T13:31:34;6.10;87.00
17762;DHT22;9005;48.838;10.112;2023-12-14T13:34:00;6.00;87.70
17762;DHT22;9005;48.838;10.112;2023-12-14T13:36:28;5.90;88.80
17762;DHT22;9005;48.838;10.112;2023-12-14T13:38:55;5.90;87.90
17762;DHT22;9005;48.838;10.112;2023-12-14T13:41:22;5.90;88.60
17762;DHT22;9005;48.838;10.112;2023-12-14T13:43:49;5.90;88.80
17762;DHT22;9005;48.838;10.112;2023-12-14T13:46:18;5.90;88.10
17762;DHT22;9005;48.838;10.112;2023-12-14T13:48:45;5.90;88.70
17762;DHT22;9005;48.838;10.112;2023-12-14T13:51:11;5.90;87.10
17762;DHT22;9005;48.838;10.112;2023-12-14T13:53:38;5.90;86.90
17762;DHT22;9005;48.838;10.112;2023-12-14T13:56:05;5.90;87.40
17762;DHT22;9005;48.838;10.112;2023-12-14T13:58:32;5.80;87.30
17762;DHT22;9005;48.838;10.112;2023-12-14T14:01:02;5.90;87.00
17762;DHT22;9005;48.838;10.112;2023-12-14T14:03:32;5.80;86.70
17762;DHT22;9005;48.838;10.112;2023-12-14T14:05:59;5.80;86.60
17762;DHT22;9005;48.838;10.112;2023-12-14T14:08:26;5.80;86.30
17762;DHT22;9005;48.838;10.112;2023-12-14T14:10:52;5.90;86.70
17762;DHT22;9005;48.838;10.112;2023-12-14T14:13:19;5.90;87.00
17762;DHT22;9005;48.838;10.112;2023-12-14T14:15:47;5.90;86.30
17762;DHT22;9005;48.838;10.112;2023-12-14T14:18:13;5.90;86.10
17762;DHT22;9005;48.838;10.112;2023-12-14T14:20:42;5.90;86.60
17762;DHT22;9005;48.838;10.112;2023-12-14T14:23:08;5.80;86.70
17762;DHT22;9005;48.838;10.112;2023-12-14T14:25:35;5.80;86.50
17762;DHT22;9005;48.838;10.112;2023-12-14T14:28:02;5.80;87.10
17762;DHT22;9005;48.838;10.112;2023-12-14T14:30:29;5.80;86.30
17762;DHT22;9005;48.838;10.112;2023-12-14T14:32:56;5.80;86.50
17762;DHT22;9005;48.838;10.112;2023-12-14T14:35:23;5.80;87.20
17762;DHT22;9005;48.838;10.112;2023-12-14T14:37:51;5.80;86.50
17762;DHT22;9005;48.838;10.112;2023-12-14T14:40:18;5.80;86.70
17762;DHT22;9005;48.838;10.112;2023-12-14T14:42:44;5.80;87.00
17762;DHT22;9005;48.838;10.112;2023-12-14T14:45:12;5.80;86.80
17762;DHT22;9005;48.838;10.112;2023-12-14T14:47:40;5.80;87.50
17762;DHT22;9005;48.838;10.112;2023-12-14T14:50:07;5.80;86.50
17762;DHT22;9005;48.838;10.112;2023-12-14T14:52:34;5.80;86.80
17762;DHT22;9005;48.838;10.112;2023-12-14T14:55:03;5.80;86.60
17762;DHT22;9005;48.838;10.112;2023-12-14T14:57:30;5.70;86.40
17762;DHT22;9005;48.838;10.112;2023-12-14T14:59:58;5.70;86.40
17762;DHT22;9005;48.838;10.112;2023-12-14T15:02:25;5.70;87.30
17762;DHT22;9005;48.838;10.112;2023-12-14T15:04:52;5.70;86.80
17762;DHT22;9005;48.838;10.112;2023-12-14T15:07:18;5.70;87.00
17762;DHT22;9005;48.838;10.112;2023-12-14T15:09:45;5.60;86.40
17762;DHT22;9005;48.838;10.112;2023-12-14T15:12:13;5.60;87.10
17762;DHT22;9005;48.838;10.112;2023-12-14T15:14:40;5.60;86.50
17762;DHT22;9005;48.838;10.112;2023-12-14T15:17:06;5.60;86.50
17762;DHT22;9005;48.838;10.112;2023-12-14T15:19:33;5.60;86.40
17762;DHT22;9005;48.838;10.112;2023-12-14T15:22:00;5.60;86.70
17762;DHT22;9005;48.838;10.112;2023-12-14T15:24:27;5.60;86.60
17762;DHT22;9005;48.838;10.112;2023-12-14T15:26:53;5.60;87.20
17762;DHT22;9005;48.838;10.112;2023-12-14T15:29:21;5.50;87.00
17762;DHT22;9005;48.838;10.112;2023-12-14T15:31:48;5.50;85.00
17762;DHT22;9005;48.838;10.112;2023-12-14T15:34:18;5.40;86.00
17762;DHT22;9005;48.838;10.112;2023-12-14T15:36:44;5.30;86.80
17762;DHT22;9005;48.838;10.112;2023-12-14T15:39:11;5.30;87.20
17762;DHT22;9005;48.838;10.112;2023-12-14T15:41:38;5.20;87.20
17762;DHT22;9005;48.838;10.112;2023-12-14T15:44:05;5.20;87.20
17762;DHT22;9005;48.838;10.112;2023-12-14T15:46:33;5.20;87.60